sensor_id;sensor_type;location;lat;lon;timestamp;P1;durP1;ratioP1;P2;durP2;ratioP2
19089;SDS011;9677;50.656;13.064;2023-04-24T00:56:20;10.27;;;9.37;;
19089;SDS011;9677;50.656;13.064;2023-04-24T00:58:50;10.37;;;9.40;;
19089;SDS011;9677;50.656;13.064;2023-04-24T01:14:54;10.10;;;9.20;;
19089;SDS011;9677;50.656;13.064;2023-04-24T01:44:35;10.37;;;9.37;;
19089;SDS011;9677;50.656;13.064;2023-04-24T01:57:20;10.10;;;9.20;;
19089;SDS011;9677;50.656;13.064;2023-04-24T02:12:56;10.00;;;9.00;;
19089;SDS011;9677;50.656;13.064;2023-04-24T02:15:26;9.93;;;9.10;;
19089;SDS011;9677;50.656;13.064;2023-04-24T02:17:55;9.73;;;8.93;;
19089;SDS011;9677;50.656;13.064;2023-04-24T02:20:24;9.40;;;8.60;;
19089;SDS011;9677;50.656;13.064;2023-04-24T02:22:53;9.80;;;8.90;;
19089;SDS011;9677;50.656;13.064;2023-04-24T02:25:23;9.73;;;8.93;;
19089;SDS011;9677;50.656;13.064;2023-04-24T02:27:56;10.03;;;9.03;;
19089;SDS011;9677;50.656;13.064;2023-04-24T02:30:25;9.40;;;8.60;;
19089;SDS011;9677;50.656;13.064;2023-04-24T02:36:21;9.80;;;9.00;;
19089;SDS011;9677;50.656;13.064;2023-04-24T02:48:56;9.57;;;8.77;;
19089;SDS011;9677;50.656;13.064;2023-04-24T03:00:42;9.23;;;8.53;;
19089;SDS011;9677;50.656;13.064;2023-04-24T03:03:17;9.60;;;8.80;;
19089;SDS011;9677;50.656;13.064;2023-04-24T03:05:52;9.50;;;8.70;;
19089;SDS011;9677;50.656;13.064;2023-04-24T03:33:01;10.00;;;9.20;;
19089;SDS011;9677;50.656;13.064;2023-04-24T03:35:34;9.77;;;8.97;;
19089;SDS011;9677;50.656;13.064;2023-04-24T03:41:31;9.77;;;8.97;;
19089;SDS011;9677;50.656;13.064;2023-04-24T03:44:08;9.57;;;8.77;;
19089;SDS011;9677;50.656;13.064;2023-04-24T03:46:38;9.40;;;8.60;;
19089;SDS011;9677;50.656;13.064;2023-04-24T03:49:10;9.60;;;8.80;;
19089;SDS011;9677;50.656;13.064;2023-04-24T03:51:42;9.70;;;8.90;;
19089;SDS011;9677;50.656;13.064;2023-04-24T03:54:25;9.50;;;8.70;;
19089;SDS011;9677;50.656;13.064;2023-04-24T04:00:17;9.60;;;8.80;;
19089;SDS011;9677;50.656;13.064;2023-04-24T04:05:51;10.33;;;8.90;;
19089;SDS011;9677;50.656;13.064;2023-04-24T04:11:13;9.50;;;8.70;;
19089;SDS011;9677;50.656;13.064;2023-04-24T04:13:44;9.83;;;9.03;;
19089;SDS011;9677;50.656;13.064;2023-04-24T04:19:38;9.67;;;8.87;;
19089;SDS011;9677;50.656;13.064;2023-04-24T04:25:18;10.00;;;9.10;;
19089;SDS011;9677;50.656;13.064;2023-04-24T04:28:19;9.73;;;8.93;;
19089;SDS011;9677;50.656;13.064;2023-04-24T04:37:41;9.63;;;8.83;;
19089;SDS011;9677;50.656;13.064;2023-04-24T04:40:39;9.67;;;8.87;;
19089;SDS011;9677;50.656;13.064;2023-04-24T04:43:11;9.77;;;8.97;;
19089;SDS011;9677;50.656;13.064;2023-04-24T04:58:59;9.93;;;9.03;;
19089;SDS011;9677;50.656;13.064;2023-04-24T05:02:04;9.50;;;8.70;;
19089;SDS011;9677;50.656;13.064;2023-04-24T05:07:54;9.60;;;8.80;;
19089;SDS011;9677;50.656;13.064;2023-04-24T05:13:37;9.87;;;9.00;;
19089;SDS011;9677;50.656;13.064;2023-04-24T05:16:30;9.60;;;8.80;;
19089;SDS011;9677;50.656;13.064;2023-04-24T05:19:00;9.83;;;9.03;;
19089;SDS011;9677;50.656;13.064;2023-04-24T05:22:04;9.63;;;8.83;;
19089;SDS011;9677;50.656;13.064;2023-04-24T05:28:24;9.50;;;8.70;;
19089;SDS011;9677;50.656;13.064;2023-04-24T05:31:38;10.10;;;9.00;;
19089;SDS011;9677;50.656;13.064;2023-04-24T05:37:32;9.90;;;9.00;;
19089;SDS011;9677;50.656;13.064;2023-04-24T05:40:10;9.90;;;9.00;;
19089;SDS011;9677;50.656;13.064;2023-04-24T05:49:18;9.57;;;8.77;;
19089;SDS011;9677;50.656;13.064;2023-04-24T05:51:52;11.67;;;9.10;;
19089;SDS011;9677;50.656;13.064;2023-04-24T05:54:24;9.50;;;8.70;;
19089;SDS011;9677;50.656;13.064;2023-04-24T05:56:55;9.50;;;8.70;;
19089;SDS011;9677;50.656;13.064;2023-04-24T06:03:11;9.43;;;8.63;;
19089;SDS011;9677;50.656;13.064;2023-04-24T06:08:58;9.40;;;8.60;;
19089;SDS011;9677;50.656;13.064;2023-04-24T06:17:44;9.40;;;8.60;;
19089;SDS011;9677;50.656;13.064;2023-04-24T06:33:10;9.30;;;8.50;;
19089;SDS011;9677;50.656;13.064;2023-04-24T06:42:09;9.20;;;8.40;;
19089;SDS011;9677;50.656;13.064;2023-04-24T06:50:55;9.13;;;8.40;;
19089;SDS011;9677;50.656;13.064;2023-04-24T06:53:32;9.27;;;8.47;;
19089;SDS011;9677;50.656;13.064;2023-04-24T07:06:55;9.23;;;8.43;;
19089;SDS011;9677;50.656;13.064;2023-04-24T07:09:25;9.20;;;8.40;;
19089;SDS011;9677;50.656;13.064;2023-04-24T07:25:01;9.57;;;8.77;;
19089;SDS011;9677;50.656;13.064;2023-04-24T07:27:57;9.20;;;8.40;;
19089;SDS011;9677;50.656;13.064;2023-04-24T07:30:31;9.33;;;8.50;;
19089;SDS011;9677;50.656;13.064;2023-04-24T07:33:29;9.80;;;8.90;;
19089;SDS011;9677;50.656;13.064;2023-04-24T07:36:32;9.30;;;8.50;;
19089;SDS011;9677;50.656;13.064;2023-04-24T07:39:08;9.20;;;8.40;;
19089;SDS011;9677;50.656;13.064;2023-04-24T07:44:22;9.37;;;8.57;;
19089;SDS011;9677;50.656;13.064;2023-04-24T07:46:54;9.73;;;8.73;;
19089;SDS011;9677;50.656;13.064;2023-04-24T07:49:26;9.10;;;8.40;;
19089;SDS011;9677;50.656;13.064;2023-04-24T07:51:55;9.67;;;8.70;;
19089;SDS011;9677;50.656;13.064;2023-04-24T07:57:26;9.20;;;8.40;;
19089;SDS011;9677;50.656;13.064;2023-04-24T07:59:57;9.43;;;8.57;;
19089;SDS011;9677;50.656;13.064;2023-04-24T08:02:26;9.30;;;8.50;;
19089;SDS011;9677;50.656;13.064;2023-04-24T08:37:02;9.40;;;8.60;;
19089;SDS011;9677;50.656;13.064;2023-04-24T08:42:48;9.30;;;8.50;;
19089;SDS011;9677;50.656;13.064;2023-04-24T08:55:01;9.10;;;8.30;;
19089;SDS011;9677;50.656;13.064;2023-04-24T09:01:13;8.90;;;8.20;;
19089;SDS011;9677;50.656;13.064;2023-04-24T09:06:32;8.90;;;8.20;;
19089;SDS011;9677;50.656;13.064;2023-04-24T09:12:29;9.03;;;8.23;;
19089;SDS011;9677;50.656;13.064;2023-04-24T09:15:09;9.00;;;8.30;;
19089;SDS011;9677;50.656;13.064;2023-04-24T09:17:39;8.90;;;8.20;;
19089;SDS011;9677;50.656;13.064;2023-04-24T09:20:08;9.40;;;8.60;;
19089;SDS011;9677;50.656;13.064;2023-04-24T09:22:38;8.80;;;8.10;;
19089;SDS011;9677;50.656;13.064;2023-04-24T09:28:32;9.10;;;8.30;;
19089;SDS011;9677;50.656;13.064;2023-04-24T09:31:46;9.20;;;8.40;;
19089;SDS011;9677;50.656;13.064;2023-04-24T09:37:27;9.00;;;8.20;;
19089;SDS011;9677;50.656;13.064;2023-04-24T09:43:15;9.00;;;8.27;;
19089;SDS011;9677;50.656;13.064;2023-04-24T09:45:45;9.30;;;8.50;;
19089;SDS011;9677;50.656;13.064;2023-04-24T09:51:41;9.20;;;8.30;;
19089;SDS011;9677;50.656;13.064;2023-04-24T09:54:41;9.10;;;8.30;;
19089;SDS011;9677;50.656;13.064;2023-04-24T10:00:40;8.83;;;8.13;;
19089;SDS011;9677;50.656;13.064;2023-04-24T10:06:05;8.70;;;8.00;;
19089;SDS011;9677;50.656;13.064;2023-04-24T10:08:36;9.20;;;8.50;;
19089;SDS011;9677;50.656;13.064;2023-04-24T10:11:06;9.07;;;8.30;;
19089;SDS011;9677;50.656;13.064;2023-04-24T10:13:38;8.80;;;8.10;;
19089;SDS011;9677;50.656;13.064;2023-04-24T10:16:08;8.70;;;8.00;;
19089;SDS011;9677;50.656;13.064;2023-04-24T10:18:38;8.80;;;8.10;;
19089;SDS011;9677;50.656;13.064;2023-04-24T10:21:10;9.00;;;8.20;;
19089;SDS011;9677;50.656;13.064;2023-04-24T10:23:40;8.90;;;8.20;;
19089;SDS011;9677;50.656;13.064;2023-04-24T10:26:15;9.10;;;8.33;;
19089;SDS011;9677;50.656;13.064;2023-04-24T10:32:00;9.13;;;8.33;;
19089;SDS011;9677;50.656;13.064;2023-04-24T10:34:30;9.10;;;8.20;;
19089;SDS011;9677;50.656;13.064;2023-04-24T10:37:00;9.10;;;8.20;;
19089;SDS011;9677;50.656;13.064;2023-04-24T10:39:32;9.20;;;8.40;;
19089;SDS011;9677;50.656;13.064;2023-04-24T10:42:13;8.70;;;8.00;;
19089;SDS011;9677;50.656;13.064;2023-04-24T10:44:47;8.90;;;8.20;;
19089;SDS011;9677;50.656;13.064;2023-04-24T10:47:15;9.03;;;8.30;;
19089;SDS011;9677;50.656;13.064;2023-04-24T10:49:45;9.40;;;8.50;;
19089;SDS011;9677;50.656;13.064;2023-04-24T10:52:15;8.80;;;8.10;;
19089;SDS011;9677;50.656;13.064;2023-04-24T10:54:47;11.90;;;8.30;;
19089;SDS011;9677;50.656;13.064;2023-04-24T10:57:26;8.80;;;8.10;;
19089;SDS011;9677;50.656;13.064;2023-04-24T11:00:10;12.43;;;9.33;;
19089;SDS011;9677;50.656;13.064;2023-04-24T11:02:49;8.80;;;8.10;;
19089;SDS011;9677;50.656;13.064;2023-04-24T11:05:22;8.70;;;8.00;;
19089;SDS011;9677;50.656;13.064;2023-04-24T11:08:23;9.10;;;8.30;;
19089;SDS011;9677;50.656;13.064;2023-04-24T11:11:03;9.10;;;8.30;;
19089;SDS011;9677;50.656;13.064;2023-04-24T11:16:39;9.30;;;8.40;;
19089;SDS011;9677;50.656;13.064;2023-04-24T11:19:21;9.10;;;8.30;;
19089;SDS011;9677;50.656;13.064;2023-04-24T11:21:58;9.43;;;8.53;;
19089;SDS011;9677;50.656;13.064;2023-04-24T11:24:39;9.10;;;8.30;;
19089;SDS011;9677;50.656;13.064;2023-04-24T11:27:25;8.80;;;8.10;;
19089;SDS011;9677;50.656;13.064;2023-04-24T11:29:59;9.10;;;8.30;;
19089;SDS011;9677;50.656;13.064;2023-04-24T11:32:33;9.20;;;8.40;;
19089;SDS011;9677;50.656;13.064;2023-04-24T11:35:05;9.23;;;8.37;;
19089;SDS011;9677;50.656;13.064;2023-04-24T11:37:44;9.20;;;8.40;;
19089;SDS011;9677;50.656;13.064;2023-04-24T11:40:37;9.13;;;8.33;;
19089;SDS011;9677;50.656;13.064;2023-04-24T11:43:06;8.90;;;8.20;;
19089;SDS011;9677;50.656;13.064;2023-04-24T11:45:37;9.10;;;8.33;;
19089;SDS011;9677;50.656;13.064;2023-04-24T11:48:07;8.90;;;8.20;;
19089;SDS011;9677;50.656;13.064;2023-04-24T11:50:45;9.20;;;8.40;;
19089;SDS011;9677;50.656;13.064;2023-04-24T11:53:15;9.43;;;8.60;;
19089;SDS011;9677;50.656;13.064;2023-04-24T11:55:44;9.47;;;8.67;;
19089;SDS011;9677;50.656;13.064;2023-04-24T11:58:15;9.00;;;8.20;;
19089;SDS011;9677;50.656;13.064;2023-04-24T12:00:55;9.20;;;8.40;;
19089;SDS011;9677;50.656;13.064;2023-04-24T12:03:27;9.57;;;8.67;;
19089;SDS011;9677;50.656;13.064;2023-04-24T12:06:04;9.23;;;8.43;;
19089;SDS011;9677;50.656;13.064;2023-04-24T12:08:35;9.10;;;8.30;;
19089;SDS011;9677;50.656;13.064;2023-04-24T12:11:07;9.03;;;8.23;;
19089;SDS011;9677;50.656;13.064;2023-04-24T12:13:36;8.73;;;8.03;;
19089;SDS011;9677;50.656;13.064;2023-04-24T12:16:05;9.47;;;8.67;;
19089;SDS011;9677;50.656;13.064;2023-04-24T12:18:34;9.10;;;8.30;;
19089;SDS011;9677;50.656;13.064;2023-04-24T12:21:19;9.40;;;8.60;;
19089;SDS011;9677;50.656;13.064;2023-04-24T12:23:54;9.10;;;8.30;;
19089;SDS011;9677;50.656;13.064;2023-04-24T12:26:24;9.00;;;8.30;;
19089;SDS011;9677;50.656;13.064;2023-04-24T12:28:53;9.30;;;8.40;;
19089;SDS011;9677;50.656;13.064;2023-04-24T12:31:23;9.40;;;8.60;;
19089;SDS011;9677;50.656;13.064;2023-04-24T12:33:53;9.10;;;8.30;;
19089;SDS011;9677;50.656;13.064;2023-04-24T12:36:23;9.20;;;8.40;;
19089;SDS011;9677;50.656;13.064;2023-04-24T12:38:53;9.20;;;8.40;;
19089;SDS011;9677;50.656;13.064;2023-04-24T12:41:21;9.10;;;8.30;;
19089;SDS011;9677;50.656;13.064;2023-04-24T12:43:54;9.33;;;8.53;;
19089;SDS011;9677;50.656;13.064;2023-04-24T12:46:22;9.40;;;8.60;;
19089;SDS011;9677;50.656;13.064;2023-04-24T12:48:51;9.20;;;8.40;;
19089;SDS011;9677;50.656;13.064;2023-04-24T12:51:20;9.50;;;8.70;;
19089;SDS011;9677;50.656;13.064;2023-04-24T12:53:48;8.83;;;8.13;;
19089;SDS011;9677;50.656;13.064;2023-04-24T12:56:17;9.20;;;8.40;;
19089;SDS011;9677;50.656;13.064;2023-04-24T12:58:45;9.20;;;8.40;;
19089;SDS011;9677;50.656;13.064;2023-04-24T13:01:15;10.00;;;8.40;;
19089;SDS011;9677;50.656;13.064;2023-04-24T13:03:44;9.27;;;8.47;;
19089;SDS011;9677;50.656;13.064;2023-04-24T13:06:13;9.60;;;8.70;;
19089;SDS011;9677;50.656;13.064;2023-04-24T13:08:42;9.30;;;8.50;;
19089;SDS011;9677;50.656;13.064;2023-04-24T13:11:10;9.20;;;8.40;;
19089;SDS011;9677;50.656;13.064;2023-04-24T13:13:38;9.67;;;8.77;;
19089;SDS011;9677;50.656;13.064;2023-04-24T13:16:07;9.70;;;8.80;;
19089;SDS011;9677;50.656;13.064;2023-04-24T13:18:37;9.17;;;8.37;;
19089;SDS011;9677;50.656;13.064;2023-04-24T13:21:06;9.10;;;8.30;;
19089;SDS011;9677;50.656;13.064;2023-04-24T13:23:35;9.20;;;8.40;;
19089;SDS011;9677;50.656;13.064;2023-04-24T13:26:04;12.33;;;8.60;;
19089;SDS011;9677;50.656;13.064;2023-04-24T13:28:32;9.17;;;8.40;;
19089;SDS011;9677;50.656;13.064;2023-04-24T13:31:00;9.30;;;8.50;;
19089;SDS011;9677;50.656;13.064;2023-04-24T13:33:29;8.90;;;8.20;;
19089;SDS011;9677;50.656;13.064;2023-04-24T13:35:59;9.33;;;8.43;;
19089;SDS011;9677;50.656;13.064;2023-04-24T13:38:28;9.20;;;8.40;;
19089;SDS011;9677;50.656;13.064;2023-04-24T13:40:57;9.00;;;8.30;;
19089;SDS011;9677;50.656;13.064;2023-04-24T13:43:26;9.17;;;8.40;;
19089;SDS011;9677;50.656;13.064;2023-04-24T13:45:55;9.40;;;8.40;;
19089;SDS011;9677;50.656;13.064;2023-04-24T13:48:25;9.23;;;8.43;;
19089;SDS011;9677;50.656;13.064;2023-04-24T13:50:55;9.50;;;8.70;;
19089;SDS011;9677;50.656;13.064;2023-04-24T13:53:25;9.20;;;8.40;;
19089;SDS011;9677;50.656;13.064;2023-04-24T13:55:54;9.50;;;8.70;;
19089;SDS011;9677;50.656;13.064;2023-04-24T13:58:22;9.20;;;8.40;;
19089;SDS011;9677;50.656;13.064;2023-04-24T14:00:51;8.80;;;8.10;;
19089;SDS011;9677;50.656;13.064;2023-04-24T14:03:20;8.93;;;8.23;;
19089;SDS011;9677;50.656;13.064;2023-04-24T14:05:49;9.30;;;8.50;;
19089;SDS011;9677;50.656;13.064;2023-04-24T14:08:18;9.47;;;8.67;;
19089;SDS011;9677;50.656;13.064;2023-04-24T14:10:48;9.67;;;8.77;;
19089;SDS011;9677;50.656;13.064;2023-04-24T14:13:18;9.30;;;8.50;;
19089;SDS011;9677;50.656;13.064;2023-04-24T14:15:47;9.30;;;8.50;;
19089;SDS011;9677;50.656;13.064;2023-04-24T14:18:16;9.20;;;8.40;;
19089;SDS011;9677;50.656;13.064;2023-04-24T14:20:45;9.43;;;8.63;;
19089;SDS011;9677;50.656;13.064;2023-04-24T14:23:15;9.23;;;8.43;;
19089;SDS011;9677;50.656;13.064;2023-04-24T14:25:44;9.27;;;8.47;;
19089;SDS011;9677;50.656;13.064;2023-04-24T14:28:16;9.47;;;8.67;;
19089;SDS011;9677;50.656;13.064;2023-04-24T14:30:45;9.30;;;8.50;;
19089;SDS011;9677;50.656;13.064;2023-04-24T14:33:13;9.13;;;8.30;;
19089;SDS011;9677;50.656;13.064;2023-04-24T14:35:42;9.40;;;8.60;;
19089;SDS011;9677;50.656;13.064;2023-04-24T14:38:10;10.13;;;9.20;;
19089;SDS011;9677;50.656;13.064;2023-04-24T14:40:39;9.43;;;8.63;;
19089;SDS011;9677;50.656;13.064;2023-04-24T14:43:11;9.50;;;8.60;;
19089;SDS011;9677;50.656;13.064;2023-04-24T14:45:41;9.13;;;8.33;;
19089;SDS011;9677;50.656;13.064;2023-04-24T14:48:09;8.93;;;8.23;;
19089;SDS011;9677;50.656;13.064;2023-04-24T14:50:38;9.17;;;8.37;;
19089;SDS011;9677;50.656;13.064;2023-04-24T14:53:07;9.17;;;8.37;;
19089;SDS011;9677;50.656;13.064;2023-04-24T14:55:35;9.30;;;8.40;;
19089;SDS011;9677;50.656;13.064;2023-04-24T14:58:04;9.40;;;8.60;;
19089;SDS011;9677;50.656;13.064;2023-04-24T15:00:33;9.20;;;8.40;;
19089;SDS011;9677;50.656;13.064;2023-04-24T15:03:03;9.47;;;8.67;;
19089;SDS011;9677;50.656;13.064;2023-04-24T15:05:32;9.30;;;8.50;;
19089;SDS011;9677;50.656;13.064;2023-04-24T15:08:01;9.50;;;8.60;;
19089;SDS011;9677;50.656;13.064;2023-04-24T15:10:30;9.10;;;8.30;;
19089;SDS011;9677;50.656;13.064;2023-04-24T15:12:58;9.20;;;8.40;;
19089;SDS011;9677;50.656;13.064;2023-04-24T15:15:27;9.20;;;8.40;;
19089;SDS011;9677;50.656;13.064;2023-04-24T15:17:55;11.67;;;8.40;;
19089;SDS011;9677;50.656;13.064;2023-04-24T15:20:25;8.90;;;8.20;;
19089;SDS011;9677;50.656;13.064;2023-04-24T15:22:53;9.10;;;8.30;;
19089;SDS011;9677;50.656;13.064;2023-04-24T15:25:22;9.20;;;8.40;;
19089;SDS011;9677;50.656;13.064;2023-04-24T15:27:50;9.37;;;8.57;;
19089;SDS011;9677;50.656;13.064;2023-04-24T15:30:19;9.00;;;8.20;;
19089;SDS011;9677;50.656;13.064;2023-04-24T15:32:47;9.63;;;8.73;;
19089;SDS011;9677;50.656;13.064;2023-04-24T15:35:16;9.17;;;8.37;;
19089;SDS011;9677;50.656;13.064;2023-04-24T15:37:46;9.30;;;8.50;;
19089;SDS011;9677;50.656;13.064;2023-04-24T15:40:15;9.20;;;8.40;;
19089;SDS011;9677;50.656;13.064;2023-04-24T15:42:44;9.00;;;8.30;;
19089;SDS011;9677;50.656;13.064;2023-04-24T15:45:13;9.20;;;8.40;;
19089;SDS011;9677;50.656;13.064;2023-04-24T15:47:41;9.10;;;8.30;;
19089;SDS011;9677;50.656;13.064;2023-04-24T15:50:12;9.10;;;8.30;;
19089;SDS011;9677;50.656;13.064;2023-04-24T15:52:42;9.20;;;8.40;;
19089;SDS011;9677;50.656;13.064;2023-04-24T15:55:12;9.37;;;8.57;;
19089;SDS011;9677;50.656;13.064;2023-04-24T15:57:41;9.20;;;8.40;;
19089;SDS011;9677;50.656;13.064;2023-04-24T16:00:10;9.30;;;8.50;;
19089;SDS011;9677;50.656;13.064;2023-04-24T16:02:40;9.13;;;8.40;;
19089;SDS011;9677;50.656;13.064;2023-04-24T16:05:09;9.30;;;8.50;;
19089;SDS011;9677;50.656;13.064;2023-04-24T16:07:38;9.40;;;8.60;;
19089;SDS011;9677;50.656;13.064;2023-04-24T16:10:07;9.27;;;8.47;;
19089;SDS011;9677;50.656;13.064;2023-04-24T16:12:38;9.20;;;8.40;;
19089;SDS011;9677;50.656;13.064;2023-04-24T16:15:07;9.27;;;8.47;;
19089;SDS011;9677;50.656;13.064;2023-04-24T16:17:38;9.40;;;8.60;;
19089;SDS011;9677;50.656;13.064;2023-04-24T16:20:07;9.40;;;8.60;;
19089;SDS011;9677;50.656;13.064;2023-04-24T16:22:42;9.27;;;8.47;;
19089;SDS011;9677;50.656;13.064;2023-04-24T16:25:11;10.10;;;9.10;;
19089;SDS011;9677;50.656;13.064;2023-04-24T16:30:54;9.43;;;8.63;;
19089;SDS011;9677;50.656;13.064;2023-04-24T16:33:25;9.70;;;8.80;;
19089;SDS011;9677;50.656;13.064;2023-04-24T16:38:34;9.33;;;8.53;;
19089;SDS011;9677;50.656;13.064;2023-04-24T16:41:03;9.60;;;8.70;;
19089;SDS011;9677;50.656;13.064;2023-04-24T16:43:33;9.30;;;8.50;;
19089;SDS011;9677;50.656;13.064;2023-04-24T16:46:12;8.90;;;8.20;;
19089;SDS011;9677;50.656;13.064;2023-04-24T16:48:47;9.30;;;8.50;;
19089;SDS011;9677;50.656;13.064;2023-04-24T16:51:17;9.57;;;8.67;;
19089;SDS011;9677;50.656;13.064;2023-04-24T16:53:50;9.80;;;8.90;;
19089;SDS011;9677;50.656;13.064;2023-04-24T16:56:20;9.60;;;8.77;;
19089;SDS011;9677;50.656;13.064;2023-04-24T16:58:52;9.40;;;8.60;;
19089;SDS011;9677;50.656;13.064;2023-04-24T17:01:26;9.40;;;8.60;;
19089;SDS011;9677;50.656;13.064;2023-04-24T17:03:55;9.10;;;8.40;;
19089;SDS011;9677;50.656;13.064;2023-04-24T17:06:24;9.17;;;8.37;;
19089;SDS011;9677;50.656;13.064;2023-04-24T17:08:53;9.20;;;8.40;;
19089;SDS011;9677;50.656;13.064;2023-04-24T17:11:22;9.30;;;8.50;;
19089;SDS011;9677;50.656;13.064;2023-04-24T17:13:50;9.30;;;8.50;;
19089;SDS011;9677;50.656;13.064;2023-04-24T17:16:19;9.20;;;8.40;;
19089;SDS011;9677;50.656;13.064;2023-04-24T17:18:49;9.33;;;8.53;;
19089;SDS011;9677;50.656;13.064;2023-04-24T17:21:18;9.20;;;8.40;;
19089;SDS011;9677;50.656;13.064;2023-04-24T17:23:48;9.20;;;8.40;;
19089;SDS011;9677;50.656;13.064;2023-04-24T17:26:17;9.17;;;8.40;;
19089;SDS011;9677;50.656;13.064;2023-04-24T17:28:47;9.20;;;8.40;;
19089;SDS011;9677;50.656;13.064;2023-04-24T17:31:20;9.40;;;8.60;;
19089;SDS011;9677;50.656;13.064;2023-04-24T17:33:51;9.33;;;8.53;;
19089;SDS011;9677;50.656;13.064;2023-04-24T17:36:22;9.30;;;8.50;;
19089;SDS011;9677;50.656;13.064;2023-04-24T17:38:52;9.33;;;8.53;;
19089;SDS011;9677;50.656;13.064;2023-04-24T17:41:21;9.53;;;8.70;;
19089;SDS011;9677;50.656;13.064;2023-04-24T17:43:49;9.60;;;8.80;;
19089;SDS011;9677;50.656;13.064;2023-04-24T17:46:19;9.73;;;8.83;;
19089;SDS011;9677;50.656;13.064;2023-04-24T17:48:48;9.67;;;8.87;;
19089;SDS011;9677;50.656;13.064;2023-04-24T17:54:45;9.50;;;8.70;;
19089;SDS011;9677;50.656;13.064;2023-04-24T18:00:48;9.33;;;8.57;;
19089;SDS011;9677;50.656;13.064;2023-04-24T18:10:06;9.47;;;8.67;;
19089;SDS011;9677;50.656;13.064;2023-04-24T18:12:45;9.40;;;8.60;;
19089;SDS011;9677;50.656;13.064;2023-04-24T18:18:37;9.53;;;8.73;;
19089;SDS011;9677;50.656;13.064;2023-04-24T18:24:24;9.20;;;8.40;;
19089;SDS011;9677;50.656;13.064;2023-04-24T18:26:54;9.77;;;8.97;;
19089;SDS011;9677;50.656;13.064;2023-04-24T18:29:26;9.20;;;8.50;;
19089;SDS011;9677;50.656;13.064;2023-04-24T18:31:59;9.57;;;8.77;;
19089;SDS011;9677;50.656;13.064;2023-04-24T18:37:30;9.20;;;8.50;;
19089;SDS011;9677;50.656;13.064;2023-04-24T18:39:59;9.70;;;8.90;;
19089;SDS011;9677;50.656;13.064;2023-04-24T18:42:32;9.50;;;8.70;;
19089;SDS011;9677;50.656;13.064;2023-04-24T18:45:02;9.60;;;8.80;;
19089;SDS011;9677;50.656;13.064;2023-04-24T18:47:32;9.60;;;8.80;;
19089;SDS011;9677;50.656;13.064;2023-04-24T18:50:01;9.80;;;9.00;;
19089;SDS011;9677;50.656;13.064;2023-04-24T18:52:31;9.50;;;8.70;;
19089;SDS011;9677;50.656;13.064;2023-04-24T18:55:05;9.60;;;8.80;;
19089;SDS011;9677;50.656;13.064;2023-04-24T18:57:37;9.60;;;8.80;;
19089;SDS011;9677;50.656;13.064;2023-04-24T19:03:27;9.60;;;8.80;;
19089;SDS011;9677;50.656;13.064;2023-04-24T19:05:58;9.90;;;9.00;;
19089;SDS011;9677;50.656;13.064;2023-04-24T19:08:32;9.70;;;8.90;;
19089;SDS011;9677;50.656;13.064;2023-04-24T19:11:05;9.97;;;9.13;;
19089;SDS011;9677;50.656;13.064;2023-04-24T19:16:36;9.50;;;8.70;;
19089;SDS011;9677;50.656;13.064;2023-04-24T19:19:06;9.40;;;8.60;;
19089;SDS011;9677;50.656;13.064;2023-04-24T19:21:36;10.00;;;9.17;;
19089;SDS011;9677;50.656;13.064;2023-04-24T19:24:37;9.70;;;8.90;;
19089;SDS011;9677;50.656;13.064;2023-04-24T19:33:42;9.90;;;9.10;;
19089;SDS011;9677;50.656;13.064;2023-04-24T19:36:15;9.70;;;8.90;;
19089;SDS011;9677;50.656;13.064;2023-04-24T19:45:13;9.60;;;8.80;;
19089;SDS011;9677;50.656;13.064;2023-04-24T19:47:42;10.00;;;9.20;;
19089;SDS011;9677;50.656;13.064;2023-04-24T19:50:13;10.17;;;9.37;;
19089;SDS011;9677;50.656;13.064;2023-04-24T19:52:46;9.90;;;8.90;;
19089;SDS011;9677;50.656;13.064;2023-04-24T20:05:57;10.03;;;9.13;;
19089;SDS011;9677;50.656;13.064;2023-04-24T20:08:25;10.10;;;9.30;;
19089;SDS011;9677;50.656;13.064;2023-04-24T20:48:09;10.23;;;9.33;;
19089;SDS011;9677;50.656;13.064;2023-04-24T20:50:41;10.30;;;9.40;;
19089;SDS011;9677;50.656;13.064;2023-04-24T21:03:19;10.50;;;9.60;;
19089;SDS011;9677;50.656;13.064;2023-04-24T21:05:54;10.33;;;9.43;;
19089;SDS011;9677;50.656;13.064;2023-04-24T21:08:29;10.60;;;9.70;;
19089;SDS011;9677;50.656;13.064;2023-04-24T22:04:35;10.40;;;9.50;;
19089;SDS011;9677;50.656;13.064;2023-04-24T22:19:56;11.20;;;10.10;;
19089;SDS011;9677;50.656;13.064;2023-04-24T22:22:34;11.80;;;10.70;;
19089;SDS011;9677;50.656;13.064;2023-04-24T22:25:04;11.37;;;10.37;;
19089;SDS011;9677;50.656;13.064;2023-04-24T22:34:00;11.00;;;10.00;;
19089;SDS011;9677;50.656;13.064;2023-04-24T22:36:31;11.30;;;10.20;;
19089;SDS011;9677;50.656;13.064;2023-04-24T22:42:38;10.77;;;9.87;;
19089;SDS011;9677;50.656;13.064;2023-04-24T22:51:08;10.63;;;9.63;;
19089;SDS011;9677;50.656;13.064;2023-04-24T22:53:40;10.93;;;9.93;;
19089;SDS011;9677;50.656;13.064;2023-04-24T22:56:08;11.37;;;10.27;;
19089;SDS011;9677;50.656;13.064;2023-04-24T22:58:38;11.20;;;10.20;;
19089;SDS011;9677;50.656;13.064;2023-04-24T23:01:07;10.87;;;9.87;;
19089;SDS011;9677;50.656;13.064;2023-04-24T23:03:37;11.00;;;10.00;;
19089;SDS011;9677;50.656;13.064;2023-04-24T23:06:13;10.70;;;9.70;;
19089;SDS011;9677;50.656;13.064;2023-04-24T23:15:19;10.63;;;9.73;;
19089;SDS011;9677;50.656;13.064;2023-04-24T23:20:43;11.03;;;10.03;;
19089;SDS011;9677;50.656;13.064;2023-04-24T23:26:03;10.73;;;9.73;;
19089;SDS011;9677;50.656;13.064;2023-04-24T23:34:18;10.57;;;9.67;;
19089;SDS011;9677;50.656;13.064;2023-04-24T23:43:01;11.10;;;10.10;;
19089;SDS011;9677;50.656;13.064;2023-04-24T23:45:34;10.70;;;9.70;;
19089;SDS011;9677;50.656;13.064;2023-04-24T23:48:05;10.70;;;9.70;;
19089;SDS011;9677;50.656;13.064;2023-04-24T23:50:39;11.27;;;10.27;;
19089;SDS011;9677;50.656;13.064;2023-04-24T23:53:09;10.90;;;9.90;;
